Terminal Aerodrome Forecast
Issued by NWS Sterling, VA

Current Version | Previous Version | Graphics & Text | Print | Product List | Glossary On
Versions: 1 2 3 4 5 6 7 8 9 10 11 12 13 14 15 16 17 18 19 20 21 22 23 24 25 26 27
000
FTUS41 KLWX 031729
TAFDCA
TAF
KDCA 031729Z 0318/0418 15006KT P6SM SCT050 BKN120
     FM040400 13006KT 6SM -SHRA OVC060
     FM040700 10006KT 4SM -SHRA OVC050
     FM040900 09006KT 3SM -SHRA OVC020
     FM041300 10005KT 5SM -SHRA OVC020
     FM041700 32006KT P6SM -SHRA OVC025=

USA.gov is the U.S. government's official web portal to all federal, state and local government web resources and services.